Time;durP1;ratioP1;P1;durP2;ratioP2;P2;SDS_P1;SDS_P2;PMS_P1;PMS_P2;Temp;Humidity;BMP_temperature;BMP_pressure;BME280_temperature;BME280_humidity;BME280_pressure;Samples;Min_cycle;Max_cycle;Signal;HPM_P1;HPM_P2
2023/10/27 00:00:09;;;;;;;19.50;4.93;;;9.70;99.90;;;;;;5113506;28;20206;-76
2023/10/27 00:02:38;;;;;;;12.33;4.43;;;9.70;99.90;;;;;;5113487;28;20207;-76
2023/10/27 00:05:07;;;;;;;13.93;4.00;;;9.60;99.90;;;;;;5113379;28;20203;-76
2023/10/27 00:07:34;;;;;;;15.33;4.30;;;9.70;99.90;;;;;;5113344;28;20203;-76
2023/10/27 00:10:00;;;;;;;14.33;3.93;;;9.60;99.90;;;;;;5113310;28;20199;-76
2023/10/27 00:12:27;;;;;;;14.70;4.60;;;9.60;99.90;;;;;;5113408;28;20200;-76
2023/10/27 00:14:53;;;;;;;16.73;4.63;;;9.60;99.90;;;;;;5113302;28;20200;-75
2023/10/27 00:17:20;;;;;;;12.57;4.70;;;9.60;99.90;;;;;;5113431;28;20198;-76
2023/10/27 00:19:47;;;;;;;16.57;4.27;;;9.60;99.90;;;;;;5113321;28;20195;-75
2023/10/27 00:22:15;;;;;;;13.40;4.07;;;9.60;99.90;;;;;;5113417;28;20203;-75
2023/10/27 00:24:42;;;;;;;21.00;4.97;;;9.60;99.90;;;;;;5113356;28;20199;-76
2023/10/27 00:27:09;;;;;;;13.27;4.23;;;9.60;99.90;;;;;;5113263;28;20195;-77
2023/10/27 00:29:35;;;;;;;17.23;4.43;;;9.60;99.90;;;;;;5113341;28;20210;-76
2023/10/27 00:32:02;;;;;;;17.53;4.17;;;9.60;99.90;;;;;;5113173;28;20227;-77
2023/10/27 00:34:29;;;;;;;17.73;5.00;;;9.60;99.90;;;;;;5112903;28;20710;-76
2023/10/27 00:36:55;;;;;;;14.37;4.30;;;9.50;99.90;;;;;;5113369;28;20253;-76
2023/10/27 00:39:23;;;;;;;21.47;5.03;;;9.50;99.90;;;;;;5113147;28;20199;-75
2023/10/27 00:41:50;;;;;;;16.30;4.77;;;9.50;99.90;;;;;;5113138;28;20288;-75
2023/10/27 00:44:17;;;;;;;17.80;4.57;;;9.40;99.90;;;;;;5112962;28;20214;-75
2023/10/27 00:46:44;;;;;;;18.27;4.90;;;9.40;99.90;;;;;;5112999;28;20219;-76
2023/10/27 00:49:11;;;;;;;13.00;4.93;;;9.40;99.90;;;;;;5112969;28;20583;-76
2023/10/27 00:51:39;;;;;;;19.93;4.57;;;9.40;99.90;;;;;;5113018;28;20276;-76
2023/10/27 00:54:08;;;;;;;18.67;4.83;;;9.40;99.90;;;;;;5113094;28;20785;-76
2023/10/27 00:56:37;;;;;;;13.13;4.60;;;9.30;99.90;;;;;;5112854;28;20234;-78
2023/10/27 00:59:04;;;;;;;16.33;4.93;;;9.30;99.90;;;;;;5116842;28;20212;-77
2023/10/27 01:01:31;;;;;;;19.60;5.03;;;9.30;99.90;;;;;;5117166;28;20206;-76
2023/10/27 01:03:58;;;;;;;17.80;4.77;;;9.30;99.90;;;;;;5117204;28;20195;-77
2023/10/27 01:06:25;;;;;;;18.50;5.43;;;9.30;99.90;;;;;;5116738;28;20207;-78
2023/10/27 01:08:51;;;;;;;18.70;5.27;;;9.30;99.90;;;;;;5116970;28;20249;-78
2023/10/27 01:11:19;;;;;;;22.67;5.07;;;9.30;99.90;;;;;;5116819;28;20594;-78
2023/10/27 01:13:50;;;;;;;17.73;5.10;;;9.30;99.90;;;;;;5117664;28;20610;-77
2023/10/27 01:16:17;;;;;;;17.07;5.30;;;9.30;99.90;;;;;;5116644;28;20200;-77
2023/10/27 01:18:44;;;;;;;17.83;5.13;;;9.30;99.90;;;;;;5116569;28;20682;-77
2023/10/27 01:21:11;;;;;;;25.23;5.27;;;9.30;99.90;;;;;;5116557;28;20249;-77
2023/10/27 01:23:39;;;;;;;23.73;5.60;;;9.20;99.90;;;;;;5116639;28;20204;-76
2023/10/27 01:26:05;;;;;;;20.77;5.30;;;9.20;99.90;;;;;;5116534;28;20253;-76
2023/10/27 01:28:32;;;;;;;22.70;5.03;;;9.30;99.90;;;;;;5116333;28;20287;-77
2023/10/27 01:30:59;;;;;;;17.50;5.00;;;9.20;99.90;;;;;;5116510;28;20223;-76
2023/10/27 01:33:26;;;;;;;14.87;4.37;;;9.20;99.90;;;;;;5116324;28;20225;-76
2023/10/27 01:35:53;;;;;;;21.30;4.80;;;9.20;99.90;;;;;;5116243;28;20647;-77
2023/10/27 01:38:20;;;;;;;14.97;4.87;;;9.20;99.90;;;;;;5116239;28;20210;-76
2023/10/27 01:40:48;;;;;;;17.80;5.30;;;9.20;99.90;;;;;;5116069;28;20600;-76
2023/10/27 01:43:14;;;;;;;18.60;5.00;;;9.20;99.90;;;;;;5116020;28;20199;-76
2023/10/27 01:45:41;;;;;;;16.40;5.20;;;9.20;99.90;;;;;;5115995;28;20589;-76
2023/10/27 01:48:08;;;;;;;17.80;5.77;;;9.20;99.90;;;;;;5116071;28;20229;-76
2023/10/27 01:50:34;;;;;;;23.83;5.30;;;9.20;99.90;;;;;;5115962;28;20199;-77
2023/10/27 01:53:01;;;;;;;15.00;4.60;;;9.20;99.90;;;;;;5115979;28;20257;-77
2023/10/27 01:55:29;;;;;;;18.03;5.13;;;9.10;99.90;;;;;;5115916;28;20196;-77
2023/10/27 01:57:57;;;;;;;19.73;5.57;;;9.10;99.90;;;;;;5115771;28;20196;-76
2023/10/27 02:00:24;;;;;;;17.10;5.07;;;9.10;99.90;;;;;;5115924;28;20196;-76
2023/10/27 02:02:51;;;;;;;16.80;5.63;;;9.10;99.90;;;;;;5116027;28;20199;-76
2023/10/27 02:05:17;;;;;;;20.83;5.17;;;9.10;99.90;;;;;;5115635;28;20702;-76
2023/10/27 02:07:44;;;;;;;22.70;5.57;;;9.10;99.90;;;;;;5116031;28;20206;-76
2023/10/27 02:10:11;;;;;;;24.87;5.87;;;9.10;99.90;;;;;;5115645;28;20755;-76
2023/10/27 02:12:37;;;;;;;24.87;6.00;;;9.10;99.90;;;;;;5115425;28;20224;-76
2023/10/27 02:15:08;;;;;;;16.17;4.53;;;9.10;99.90;;;;;;5115606;28;20256;-75
2023/10/27 02:17:34;;;;;;;21.23;6.00;;;9.10;99.90;;;;;;5115651;28;20211;-75
2023/10/27 02:20:01;;;;;;;21.77;6.00;;;9.10;99.90;;;;;;5115482;28;20245;-75
2023/10/27 02:22:28;;;;;;;27.30;7.90;;;9.10;99.90;;;;;;5115498;28;20281;-75
2023/10/27 02:24:56;;;;;;;18.30;7.33;;;9.10;99.90;;;;;;5115187;28;20269;-76
2023/10/27 02:27:22;;;;;;;17.83;6.73;;;9.20;99.90;;;;;;5115461;28;20200;-76
2023/10/27 02:29:49;;;;;;;14.83;5.70;;;9.10;99.90;;;;;;5115215;28;20536;-75
2023/10/27 02:32:18;;;;;;;18.03;5.87;;;9.20;99.90;;;;;;5115040;28;20582;-76
2023/10/27 02:34:44;;;;;;;23.83;8.07;;;9.20;99.90;;;;;;5114941;28;20250;-75
2023/10/27 02:37:11;;;;;;;26.93;8.07;;;9.20;99.90;;;;;;5115091;28;20195;-76
2023/10/27 02:39:39;;;;;;;22.67;7.17;;;9.20;99.90;;;;;;5115028;28;20339;-76
2023/10/27 02:42:06;;;;;;;17.60;6.33;;;9.20;99.90;;;;;;5115071;28;20241;-75
2023/10/27 02:44:33;;;;;;;27.80;6.87;;;9.20;99.90;;;;;;5115085;28;20252;-76
2023/10/27 02:46:59;;;;;;;15.03;5.73;;;9.20;99.90;;;;;;5114963;28;20196;-75
2023/10/27 02:49:27;;;;;;;22.33;7.50;;;9.20;99.90;;;;;;5114887;28;20244;-75
2023/10/27 02:51:54;;;;;;;23.43;7.27;;;9.20;99.90;;;;;;5114627;28;20678;-74
2023/10/27 02:54:21;;;;;;;22.17;6.30;;;9.30;99.90;;;;;;5115028;28;20261;-76
2023/10/27 02:56:47;;;;;;;28.27;6.57;;;9.30;99.90;;;;;;5114925;28;20195;-75
2023/10/27 02:59:14;;;;;;;18.73;6.87;;;9.30;99.90;;;;;;5114820;28;20248;-75
2023/10/27 03:01:41;;;;;;;34.77;13.40;;;9.30;99.90;;;;;;5114770;28;20207;-75
2023/10/27 03:04:07;;;;;;;21.50;7.40;;;9.30;99.90;;;;;;5114537;28;20192;-74
2023/10/27 03:06:35;;;;;;;24.80;8.27;;;9.30;99.90;;;;;;5114426;28;20229;-74
2023/10/27 03:09:03;;;;;;;18.07;7.30;;;9.30;99.90;;;;;;5114691;28;20202;-75
2023/10/27 03:11:30;;;;;;;26.00;10.10;;;9.30;99.90;;;;;;5114288;28;20765;-75
2023/10/27 03:13:56;;;;;;;26.07;8.53;;;9.30;99.90;;;;;;5114297;28;20686;-74
2023/10/27 03:16:23;;;;;;;22.00;9.40;;;9.20;99.90;;;;;;5114285;28;20597;-74
2023/10/27 03:18:50;;;;;;;25.10;8.57;;;9.20;99.90;;;;;;5114245;28;20567;-74
2023/10/27 03:21:17;;;;;;;25.83;10.40;;;9.30;99.90;;;;;;5113567;28;20202;-74
2023/10/27 03:23:45;;;;;;;17.60;8.67;;;9.20;99.90;;;;;;5114281;28;20195;-74
2023/10/27 03:26:11;;;;;;;22.47;9.83;;;9.30;99.90;;;;;;5114250;28;20256;-75
2023/10/27 03:28:38;;;;;;;16.80;9.23;;;9.30;99.90;;;;;;5114154;28;20252;-75
2023/10/27 03:31:05;;;;;;;20.13;8.53;;;9.40;99.90;;;;;;5113802;28;20687;-75
2023/10/27 03:33:31;;;;;;;13.73;7.27;;;9.40;99.90;;;;;;5113725;28;20651;-75
2023/10/27 03:35:58;;;;;;;21.17;9.90;;;9.40;99.90;;;;;;5114040;28;20651;-75
2023/10/27 03:38:25;;;;;;;28.73;14.47;;;9.40;99.90;;;;;;5113868;28;20557;-75
2023/10/27 03:40:54;;;;;;;19.33;9.53;;;9.40;99.90;;;;;;5113727;28;20696;-75
2023/10/27 03:43:21;;;;;;;20.80;7.43;;;9.40;99.90;;;;;;5113837;28;20207;-75
2023/10/27 03:45:48;;;;;;;13.07;7.60;;;9.40;99.90;;;;;;5113659;28;20647;-75
2023/10/27 03:48:15;;;;;;;11.20;6.40;;;9.40;99.90;;;;;;5113517;28;20601;-75
2023/10/27 03:50:41;;;;;;;10.47;6.87;;;9.40;99.90;;;;;;5113888;28;20199;-75
2023/10/27 03:53:08;;;;;;;10.90;7.27;;;9.40;99.90;;;;;;5113717;28;20219;-75
2023/10/27 03:55:35;;;;;;;13.30;7.27;;;9.30;99.90;;;;;;5113616;28;20195;-75
2023/10/27 03:58:15;;;;;;;12.10;8.07;;;9.30;99.90;;;;;;5113473;28;20240;-75
2023/10/27 04:00:42;;;;;;;9.43;7.57;;;9.30;99.90;;;;;;5113455;28;20191;-75
2023/10/27 04:03:09;;;;;;;11.43;7.30;;;9.30;99.90;;;;;;5113728;28;20260;-75
2023/10/27 04:05:36;;;;;;;12.93;8.07;;;9.30;99.90;;;;;;5113587;28;20535;-75
2023/10/27 04:08:04;;;;;;;14.30;7.63;;;9.30;99.90;;;;;;5113513;28;20199;-75
2023/10/27 04:10:31;;;;;;;12.10;8.00;;;9.30;99.90;;;;;;5113436;28;20195;-75
2023/10/27 04:12:58;;;;;;;15.40;8.13;;;9.20;99.90;;;;;;5113058;28;20701;-75
2023/10/27 04:15:26;;;;;;;11.33;8.30;;;9.20;99.90;;;;;;5113162;28;20392;-75
2023/10/27 04:17:53;;;;;;;10.00;8.20;;;9.30;99.90;;;;;;5113527;28;20229;-75
2023/10/27 04:20:20;;;;;;;14.10;8.37;;;9.20;99.90;;;;;;5113297;28;20200;-75
2023/10/27 04:22:46;;;;;;;13.57;8.47;;;9.20;99.90;;;;;;5113320;28;20203;-75
2023/10/27 04:25:13;;;;;;;13.73;8.60;;;9.20;99.90;;;;;;5113282;28;20192;-75
2023/10/27 04:27:40;;;;;;;14.30;9.20;;;9.20;99.90;;;;;;5113181;28;20233;-76
2023/10/27 04:30:08;;;;;;;13.23;9.00;;;9.20;99.90;;;;;;5113078;28;20665;-75
2023/10/27 04:32:36;;;;;;;12.97;9.20;;;9.20;99.90;;;;;;5114714;28;20236;-75
2023/10/27 04:35:04;;;;;;;11.30;9.23;;;9.20;99.90;;;;;;5117120;28;20273;-75
2023/10/27 04:37:32;;;;;;;11.20;8.73;;;9.20;99.90;;;;;;5137631;27;20286;-75
2023/10/27 04:39:58;;;;;;;13.13;9.73;;;9.20;99.90;;;;;;5137716;27;20198;-75
2023/10/27 04:42:25;;;;;;;42.00;12.97;;;9.20;99.90;;;;;;5137522;27;20199;-76
2023/10/27 04:44:52;;;;;;;13.37;9.60;;;9.10;99.90;;;;;;5138006;27;20206;-76
2023/10/27 04:47:19;;;;;;;11.27;9.73;;;9.10;99.90;;;;;;5137674;27;20247;-76
2023/10/27 04:49:47;;;;;;;14.07;9.87;;;9.20;99.90;;;;;;5137754;27;20293;-75
2023/10/27 04:52:14;;;;;;;12.97;9.00;;;9.10;99.90;;;;;;5137476;27;20225;-74
2023/10/27 04:54:40;;;;;;;13.93;9.90;;;9.10;99.90;;;;;;5137546;27;20263;-74
2023/10/27 04:57:07;;;;;;;15.80;9.83;;;9.10;99.90;;;;;;5137275;27;20665;-75
2023/10/27 04:59:34;;;;;;;14.50;9.57;;;9.10;99.90;;;;;;5137494;27;20203;-75
2023/10/27 05:02:01;;;;;;;14.23;9.80;;;9.00;99.90;;;;;;5137199;27;20595;-75
2023/10/27 05:04:27;;;;;;;13.60;9.70;;;9.10;99.90;;;;;;5137482;27;20591;-75
2023/10/27 05:06:57;;;;;;;12.70;9.33;;;9.00;99.90;;;;;;5137246;27;20255;-75
2023/10/27 05:09:24;;;;;;;13.40;10.10;;;9.00;99.90;;;;;;5137111;27;20195;-75
2023/10/27 05:11:51;;;;;;;15.40;10.97;;;9.00;99.90;;;;;;5137258;27;20267;-76
2023/10/27 05:14:17;;;;;;;14.13;11.00;;;9.00;99.90;;;;;;5137202;27;20208;-75
2023/10/27 05:16:45;;;;;;;14.80;9.93;;;9.00;99.90;;;;;;5137263;27;20195;-75
2023/10/27 05:19:12;;;;;;;13.50;8.67;;;9.00;99.90;;;;;;5136829;27;20678;-75
2023/10/27 05:21:39;;;;;;;15.87;11.47;;;9.00;99.90;;;;;;5136993;27;20256;-75
2023/10/27 05:24:09;;;;;;;16.53;13.50;;;8.90;99.90;;;;;;5136833;27;20256;-75
2023/10/27 05:26:36;;;;;;;13.13;9.33;;;9.00;99.90;;;;;;5137045;27;20256;-75
2023/10/27 05:29:02;;;;;;;35.13;17.87;;;9.00;99.90;;;;;;5136905;27;20203;-75
2023/10/27 05:31:29;;;;;;;14.17;8.47;;;8.90;99.90;;;;;;5136596;27;20202;-75
2023/10/27 05:33:56;;;;;;;17.50;10.83;;;8.90;99.90;;;;;;5136446;27;20234;-75
2023/10/27 05:36:22;;;;;;;11.80;8.27;;;8.90;99.90;;;;;;5136578;27;20195;-76
2023/10/27 05:38:49;;;;;;;11.33;8.73;;;8.90;99.90;;;;;;5135979;27;20203;-76
2023/10/27 05:41:17;;;;;;;11.10;7.70;;;8.80;99.90;;;;;;5136534;27;20199;-75
2023/10/27 05:43:44;;;;;;;11.47;8.03;;;8.80;99.90;;;;;;5136019;27;20241;-75
2023/10/27 05:46:11;;;;;;;15.47;8.10;;;8.80;99.90;;;;;;5136435;27;20281;-75
2023/10/27 05:48:37;;;;;;;10.63;6.40;;;8.70;99.90;;;;;;5136351;27;20222;-75
2023/10/27 05:51:05;;;;;;;8.63;6.40;;;8.70;99.90;;;;;;5136058;27;20267;-75
2023/10/27 05:53:31;;;;;;;7.83;5.73;;;8.70;99.90;;;;;;5135934;27;20555;-75
2023/10/27 05:55:58;;;;;;;11.73;6.53;;;8.70;99.90;;;;;;5136267;27;20205;-76
2023/10/27 05:58:30;;;;;;;9.07;5.93;;;8.70;99.90;;;;;;5136251;27;20191;-76
2023/10/27 06:00:57;;;;;;;11.10;6.97;;;8.70;99.90;;;;;;5136100;27;20199;-76
2023/10/27 06:03:23;;;;;;;6.67;5.00;;;8.70;99.90;;;;;;5135998;27;20263;-76
2023/10/27 06:05:52;;;;;;;7.87;4.77;;;8.60;99.90;;;;;;5135816;27;20199;-76
2023/10/27 06:08:19;;;;;;;7.67;5.10;;;8.60;99.90;;;;;;5136100;27;20289;-76
2023/10/27 06:10:45;;;;;;;7.80;4.20;;;8.60;99.90;;;;;;5136075;27;20191;-76
2023/10/27 06:13:13;;;;;;;8.07;4.37;;;8.60;99.90;;;;;;5136045;27;20226;-75
2023/10/27 06:15:42;;;;;;;6.93;4.00;;;8.60;99.90;;;;;;5135979;27;20286;-76
2023/10/27 06:18:08;;;;;;;10.07;4.97;;;8.60;99.90;;;;;;5135765;27;20218;-76
2023/10/27 06:20:35;;;;;;;6.87;4.60;;;8.60;99.90;;;;;;5135717;27;20661;-76
2023/10/27 06:23:02;;;;;;;6.57;4.00;;;8.60;99.90;;;;;;5135758;27;20194;-75
2023/10/27 06:25:28;;;;;;;17.60;4.70;;;8.60;99.90;;;;;;5135707;27;20558;-76
2023/10/27 06:27:55;;;;;;;9.13;3.93;;;8.60;99.90;;;;;;5135696;27;20203;-76
2023/10/27 06:30:23;;;;;;;11.27;4.23;;;8.60;99.90;;;;;;5135672;27;20203;-76
2023/10/27 06:32:51;;;;;;;6.87;3.97;;;8.60;99.90;;;;;;5135426;27;20218;-76
2023/10/27 06:35:17;;;;;;;6.77;3.90;;;8.60;99.90;;;;;;5134982;27;20249;-76
2023/10/27 06:37:44;;;;;;;12.10;4.47;;;8.60;99.90;;;;;;5135619;27;20257;-75
2023/10/27 06:40:12;;;;;;;7.63;4.03;;;8.60;99.90;;;;;;5135480;27;20206;-76
2023/10/27 06:42:38;;;;;;;8.13;6.00;;;8.60;99.90;;;;;;5135474;27;20199;-76
2023/10/27 06:45:08;;;;;;;11.27;4.33;;;8.60;99.90;;;;;;5135022;27;20244;-77
2023/10/27 06:47:35;;;;;;;10.83;4.93;;;8.60;99.90;;;;;;5135553;27;20195;-76
2023/10/27 06:50:04;;;;;;;19.47;12.73;;;8.60;99.90;;;;;;5135413;27;20199;-77
2023/10/27 06:52:31;;;;;;;7.80;4.10;;;8.70;99.90;;;;;;5135104;27;20693;-76
2023/10/27 06:54:58;;;;;;;7.80;4.33;;;8.70;99.90;;;;;;5134272;27;20290;-74
2023/10/27 06:57:25;;;;;;;9.80;4.83;;;8.70;99.90;;;;;;5135238;27;20191;-77
2023/10/27 06:59:55;;;;;;;24.07;17.20;;;8.70;99.90;;;;;;5135084;27;20199;-77
2023/10/27 07:02:21;;;;;;;8.60;5.53;;;8.70;99.90;;;;;;5135321;27;20199;-77
2023/10/27 07:04:48;;;;;;;6.77;3.70;;;8.70;99.90;;;;;;5135118;27;20194;-77
2023/10/27 07:07:16;;;;;;;7.70;3.40;;;8.70;99.90;;;;;;5134875;27;20191;-77
2023/10/27 07:09:43;;;;;;;11.33;7.07;;;8.70;99.90;;;;;;5134923;27;20570;-78
2023/10/27 07:12:10;;;;;;;5.43;4.87;;;8.70;99.90;;;;;;5134627;27;20271;-80
2023/10/27 07:14:37;;;;;;;8.00;4.67;;;8.80;99.90;;;;;;5134687;27;20203;-77
2023/10/27 07:17:04;;;;;;;7.97;4.90;;;8.80;99.90;;;;;;5134837;27;20191;-76
2023/10/27 07:19:33;;;;;;;7.87;5.07;;;8.80;99.90;;;;;;5134653;27;20657;-77
2023/10/27 07:22:00;;;;;;;13.03;4.90;;;8.90;99.90;;;;;;5134664;27;20199;-74
2023/10/27 07:24:32;;;;;;;8.43;4.27;;;8.90;99.90;;;;;;5134574;27;20195;-77
2023/10/27 07:26:59;;;;;;;13.80;4.57;;;8.90;99.90;;;;;;5134623;27;20255;-77
2023/10/27 07:29:25;;;;;;;9.73;5.20;;;8.90;99.90;;;;;;5134604;27;20202;-81
2023/10/27 07:31:53;;;;;;;9.57;5.00;;;8.90;99.90;;;;;;5134526;27;20627;-80
2023/10/27 07:34:19;;;;;;;7.70;5.47;;;8.90;99.90;;;;;;5134356;27;20235;-79
2023/10/27 07:36:46;;;;;;;11.67;5.97;;;9.00;99.90;;;;;;5134300;27;20255;-79
2023/10/27 07:39:14;;;;;;;9.30;4.60;;;9.00;99.90;;;;;;5134578;27;20207;-79
2023/10/27 07:41:42;;;;;;;11.00;5.87;;;9.00;99.90;;;;;;5134956;27;20251;-84
2023/10/27 07:44:08;;;;;;;10.90;5.40;;;9.00;99.90;;;;;;5134561;27;20202;-81
2023/10/27 07:46:35;;;;;;;11.80;5.33;;;9.10;99.90;;;;;;5134378;27;20199;-80
2023/10/27 07:49:02;;;;;;;9.70;4.77;;;9.10;99.90;;;;;;5134068;27;20203;-79
2023/10/27 07:51:28;;;;;;;19.83;9.20;;;9.20;99.90;;;;;;5134172;27;20199;-79
2023/10/27 07:53:56;;;;;;;9.23;4.63;;;9.20;99.90;;;;;;5134057;27;20616;-81
2023/10/27 07:56:23;;;;;;;10.20;5.40;;;9.20;99.90;;;;;;5134271;27;20203;-77
2023/10/27 07:58:51;;;;;;;6.47;4.23;;;9.30;99.90;;;;;;5134080;27;20199;-80
2023/10/27 08:01:17;;;;;;;8.97;4.93;;;9.30;99.90;;;;;;5133993;27;20203;-79
2023/10/27 08:03:45;;;;;;;7.43;4.00;;;9.40;99.90;;;;;;5133990;27;20205;-78
2023/10/27 08:06:13;;;;;;;5.97;3.80;;;9.40;99.90;;;;;;5133863;27;20195;-78
2023/10/27 08:08:40;;;;;;;6.90;3.63;;;9.50;99.90;;;;;;5133699;27;20197;-76
2023/10/27 08:11:07;;;;;;;6.23;3.40;;;9.50;99.90;;;;;;5133866;27;20200;-77
2023/10/27 08:13:34;;;;;;;5.23;3.70;;;9.40;99.90;;;;;;5133720;27;20268;-72
2023/10/27 08:16:04;;;;;;;5.57;3.43;;;9.40;99.90;;;;;;5133829;27;20589;-77
2023/10/27 08:18:30;;;;;;;5.60;4.00;;;9.50;99.90;;;;;;5133664;27;20195;-76
2023/10/27 08:20:57;;;;;;;6.83;4.80;;;9.50;99.90;;;;;;5133481;27;20195;-76
2023/10/27 08:23:24;;;;;;;6.13;4.03;;;9.40;99.90;;;;;;5133596;27;20191;-76
2023/10/27 08:25:51;;;;;;;5.20;3.37;;;9.30;99.90;;;;;;5133740;27;20276;-75
2023/10/27 08:28:18;;;;;;;4.90;3.80;;;9.40;99.90;;;;;;5133778;28;20234;-76
2023/10/27 08:30:44;;;;;;;7.63;3.80;;;9.40;99.90;;;;;;5133420;28;20203;-75
2023/10/27 08:33:14;;;;;;;5.47;3.60;;;9.40;99.90;;;;;;5133505;28;20215;-76
2023/10/27 08:35:41;;;;;;;6.97;6.17;;;9.40;99.90;;;;;;5133191;28;20219;-76
2023/10/27 08:38:08;;;;;;;5.97;3.90;;;9.60;99.90;;;;;;5133425;28;20256;-77
2023/10/27 08:40:35;;;;;;;5.17;4.67;;;9.70;99.90;;;;;;5133535;28;20199;-75
2023/10/27 08:43:03;;;;;;;7.10;4.30;;;9.80;99.90;;;;;;5133180;28;20578;-74
2023/10/27 08:45:32;;;;;;;4.23;3.77;;;9.80;99.90;;;;;;5133521;28;20278;-74
2023/10/27 08:48:00;;;;;;;5.20;3.40;;;9.90;99.90;;;;;;5133112;28;20281;-76
2023/10/27 08:50:29;;;;;;;3.67;3.07;;;10.10;99.90;;;;;;5133306;28;20286;-75
2023/10/27 08:52:56;;;;;;;5.30;2.50;;;10.30;99.90;;;;;;5133483;28;20226;-75
2023/10/27 08:55:25;;;;;;;4.60;2.50;;;10.40;99.90;;;;;;5133384;28;20194;-76
2023/10/27 08:57:55;;;;;;;4.40;2.20;;;10.30;99.90;;;;;;5133451;28;20263;-75
2023/10/27 09:00:22;;;;;;;4.83;2.80;;;10.20;99.90;;;;;;5133443;28;20195;-76
2023/10/27 09:02:48;;;;;;;3.20;2.37;;;10.20;99.90;;;;;;5132928;28;20203;-75
2023/10/27 09:05:16;;;;;;;3.73;2.23;;;10.40;99.90;;;;;;5133372;28;20195;-76
2023/10/27 09:07:44;;;;;;;3.03;2.00;;;10.50;99.90;;;;;;5133363;28;20247;-76
2023/10/27 09:10:11;;;;;;;1.87;1.70;;;10.50;99.90;;;;;;5133274;28;20202;-76
2023/10/27 09:12:39;;;;;;;4.13;3.00;;;10.40;99.90;;;;;;5133118;28;20205;-77
2023/10/27 09:15:07;;;;;;;2.43;1.70;;;10.60;99.90;;;;;;5132947;28;20697;-76
2023/10/27 09:17:52;;;;;;;2.97;2.10;;;10.60;99.90;;;;;;5132470;27;20191;-76
2023/10/27 09:20:21;;;;;;;3.50;3.03;;;10.50;99.90;;;;;;5117688;27;20605;-75
2023/10/27 09:22:58;;;;;;;2.37;2.17;;;10.60;99.90;;;;;;5116186;28;20192;-74
2023/10/27 09:25:29;;;;;;;2.53;2.00;;;10.80;99.90;;;;;;5133721;27;20721;-75
2023/10/27 09:27:56;;;;;;;2.60;2.10;;;10.80;99.90;;;;;;5136860;27;20255;-75
2023/10/27 09:30:26;;;;;;;4.40;3.07;;;10.90;99.90;;;;;;5136355;27;20199;-74
2023/10/27 09:32:53;;;;;;;2.80;2.17;;;10.90;99.90;;;;;;5136692;27;20368;-74
2023/10/27 09:35:22;;;;;;;1.50;1.40;;;11.00;99.90;;;;;;5119642;27;20273;-74
2023/10/27 09:37:50;;;;;;;2.57;1.83;;;11.30;99.90;;;;;;5115875;28;20203;-73
2023/10/27 09:40:18;;;;;;;6.67;3.53;;;11.40;99.90;;;;;;5115785;28;20238;-74
2023/10/27 09:42:45;;;;;;;3.80;2.23;;;11.80;99.90;;;;;;5115933;28;20199;-74
2023/10/27 09:45:13;;;;;;;2.97;1.33;;;11.80;99.90;;;;;;5115662;27;20196;-73
2023/10/27 09:47:46;;;;;;;2.70;1.30;;;11.60;99.90;;;;;;5115618;28;20196;-73
2023/10/27 09:50:15;;;;;;;2.20;1.30;;;11.60;99.90;;;;;;5115655;27;20192;-73
2023/10/27 09:52:44;;;;;;;3.87;1.57;;;11.70;99.90;;;;;;5115676;28;20593;-72
2023/10/27 09:55:13;;;;;;;1.13;1.03;;;11.70;99.90;;;;;;5115395;27;20686;-73
2023/10/27 09:57:44;;;;;;;1.20;1.00;;;12.10;99.90;;;;;;5115579;28;20195;-73
2023/10/27 10:00:13;;;;;;;1.77;1.10;;;11.90;99.90;;;;;;5115619;27;20188;-73
2023/10/27 10:02:41;;;;;;;1.47;1.30;;;11.90;99.90;;;;;;5115454;28;20200;-73
2023/10/27 10:05:09;;;;;;;1.30;1.13;;;11.90;99.90;;;;;;5115449;28;20204;-73
2023/10/27 10:07:40;;;;;;;1.70;1.20;;;11.70;99.90;;;;;;5115761;28;20196;-74
2023/10/27 10:10:21;;;;;;;1.37;1.27;;;11.60;99.90;;;;;;5115600;27;20242;-74
2023/10/27 10:13:03;;;;;;;1.60;1.30;;;11.50;99.90;;;;;;5115318;28;20694;-73
2023/10/27 10:15:32;;;;;;;2.73;1.57;;;11.50;99.90;;;;;;5115174;27;20279;-73
2023/10/27 10:17:59;;;;;;;1.83;1.30;;;11.50;99.90;;;;;;5114661;28;20611;-73
2023/10/27 10:21:07;;;;;;;1.93;1.33;;;11.50;99.90;;;;;;5129657;27;20550;-73
2023/10/27 10:24:18;;;;;;;2.13;1.30;;;11.50;99.90;;;;;;5125301;27;20206;-73
2023/10/27 10:27:10;;;;;;;2.17;1.40;;;11.50;99.90;;;;;;5135733;27;20195;-74
2023/10/27 10:29:38;;;;;;;3.20;1.80;;;11.50;99.90;;;;;;5135198;27;20190;-74
2023/10/27 10:32:31;;;;;;;1.77;1.40;;;11.50;99.90;;;;;;5135129;27;20664;-74
2023/10/27 10:35:23;;;;;;;2.60;1.40;;;11.60;99.90;;;;;;5125128;27;20273;-74
2023/10/27 10:37:53;;;;;;;2.23;1.30;;;11.80;99.90;;;;;;5114471;28;20252;-74
2023/10/27 10:40:26;;;;;;;4.07;1.37;;;11.80;99.90;;;;;;5114569;27;20195;-75
2023/10/27 10:43:19;;;;;;;1.40;1.23;;;12.30;99.90;;;;;;5114471;28;20199;-75
2023/10/27 10:45:50;;;;;;;2.17;1.60;;;11.80;99.90;;;;;;5114434;28;20196;-73
2023/10/27 10:48:16;;;;;;;3.23;2.13;;;11.60;99.90;;;;;;5114142;28;20638;-73
2023/10/27 10:50:43;;;;;;;2.50;1.53;;;11.60;99.90;;;;;;5114546;28;20597;-74
2023/10/27 10:53:11;;;;;;;2.00;1.50;;;11.60;99.90;;;;;;5114285;27;20192;-73
2023/10/27 10:55:38;;;;;;;2.50;1.60;;;11.60;99.90;;;;;;5114052;28;20663;-73
2023/10/27 10:58:05;;;;;;;4.30;1.57;;;11.80;99.90;;;;;;5114356;28;20249;-73
2023/10/27 11:00:36;;;;;;;2.03;1.40;;;11.90;99.90;;;;;;5114226;28;20188;-73
2023/10/27 11:03:07;;;;;;;2.97;1.70;;;13.40;99.90;;;;;;5113940;28;20671;-73
2023/10/27 11:05:34;;;;;;;2.03;1.40;;;13.30;99.90;;;;;;5121110;27;20576;-74
2023/10/27 11:08:01;;;;;;;2.53;1.20;;;13.90;99.90;;;;;;5134619;27;20704;-74
2023/10/27 11:10:28;;;;;;;3.00;1.40;;;12.60;99.90;;;;;;5134803;27;20480;-74
2023/10/27 11:12:55;;;;;;;3.37;1.43;;;12.30;99.90;;;;;;5134719;27;20199;-73
2023/10/27 11:15:41;;;;;;;2.60;1.57;;;12.60;99.90;;;;;;5133577;27;20214;-73
2023/10/27 11:18:14;;;;;;;3.43;1.50;;;12.80;99.90;;;;;;5134444;27;20629;-75
2023/10/27 11:20:42;;;;;;;2.60;1.60;;;12.40;99.90;;;;;;5134452;27;20195;-75
2023/10/27 11:23:09;;;;;;;2.30;1.50;;;12.80;99.90;;;;;;5134628;27;20251;-75
2023/10/27 11:25:36;;;;;;;2.13;1.40;;;14.80;99.90;;;;;;5134517;27;20263;-75
2023/10/27 11:28:22;;;;;;;3.17;1.43;;;15.50;99.90;;;;;;5134230;27;20658;-75
2023/10/27 11:30:59;;;;;;;2.65;1.20;;;16.10;99.90;;;;;;5133705;27;20384;-75
2023/10/27 11:33:28;;;;;;;2.53;1.20;;;15.70;99.90;;;;;;5133916;27;20565;-74
2023/10/27 11:35:55;;;;;;;5.80;1.40;;;14.50;99.90;;;;;;5134601;27;20199;-74
2023/10/27 11:38:23;;;;;;;2.23;1.30;;;13.40;99.90;;;;;;5134252;27;20190;-73
2023/10/27 11:40:50;;;;;;;2.00;1.43;;;12.90;99.90;;;;;;5133550;27;20203;-73
2023/10/27 11:43:17;;;;;;;2.80;1.70;;;12.60;99.90;;;;;;5134229;27;20230;-73
2023/10/27 11:45:45;;;;;;;3.33;1.30;;;12.40;99.90;;;;;;5134338;27;20256;-74
2023/10/27 11:48:12;;;;;;;2.20;1.30;;;12.90;99.90;;;;;;5133807;27;20195;-72
2023/10/27 11:50:40;;;;;;;3.47;1.67;;;14.50;99.90;;;;;;5134094;27;20195;-73
2023/10/27 11:53:07;;;;;;;1.77;1.30;;;16.10;99.90;;;;;;5134092;27;20248;-72
2023/10/27 11:55:33;;;;;;;2.83;1.40;;;14.80;99.90;;;;;;5133682;27;20690;-72
2023/10/27 11:58:00;;;;;;;3.13;1.47;;;13.10;99.90;;;;;;5134000;27;20203;-73
2023/10/27 12:00:27;;;;;;;3.00;1.80;;;15.40;99.90;;;;;;5134070;27;20628;-72
2023/10/27 12:02:54;;;;;;;3.40;1.50;;;14.50;99.90;;;;;;5134028;27;20194;-73
2023/10/27 12:05:21;;;;;;;1.93;1.30;;;13.60;99.90;;;;;;5133914;27;20320;-72
2023/10/27 12:07:49;;;;;;;3.87;1.40;;;12.90;99.90;;;;;;5133882;27;20194;-73
2023/10/27 12:10:15;;;;;;;2.70;1.53;;;12.80;99.90;;;;;;5133771;27;20195;-73
2023/10/27 12:12:42;;;;;;;4.00;1.47;;;12.60;99.90;;;;;;5133977;27;20199;-73
2023/10/27 12:15:14;;;;;;;5.07;1.80;;;12.50;99.90;;;;;;5133806;27;20226;-73
2023/10/27 12:17:41;;;;;;;2.53;1.30;;;12.30;99.90;;;;;;5133416;27;20209;-73
2023/10/27 12:20:10;;;;;;;2.27;1.67;;;12.30;99.90;;;;;;5133665;27;20642;-73
2023/10/27 12:22:36;;;;;;;2.83;1.20;;;13.00;99.90;;;;;;5133608;27;20199;-72
2023/10/27 12:25:05;;;;;;;3.60;2.13;;;12.40;99.90;;;;;;5133890;27;20195;-73
2023/10/27 12:27:32;;;;;;;5.27;3.23;;;12.10;99.90;;;;;;5133680;27;20203;-73
2023/10/27 12:29:59;;;;;;;2.67;1.77;;;12.50;99.90;;;;;;5133686;28;20282;-73
2023/10/27 12:32:32;;;;;;;3.70;2.20;;;14.10;99.90;;;;;;5133609;28;20202;-73
2023/10/27 12:34:59;;;;;;;9.17;7.50;;;12.80;99.90;;;;;;5133330;27;20241;-74
2023/10/27 12:37:26;;;;;;;3.00;2.00;;;11.80;99.90;;;;;;5133566;27;20199;-73
2023/10/27 12:39:53;;;;;;;3.57;2.37;;;12.00;99.90;;;;;;5133552;28;20665;-73
2023/10/27 12:42:21;;;;;;;5.97;2.40;;;12.70;99.90;;;;;;5133668;28;20199;-74
2023/10/27 12:44:48;;;;;;;5.67;4.20;;;12.50;99.90;;;;;;5133297;28;20201;-74
2023/10/27 12:47:14;;;;;;;3.57;1.70;;;12.20;99.90;;;;;;5133357;28;20195;-76
2023/10/27 12:49:41;;;;;;;5.20;3.77;;;12.10;99.90;;;;;;5133425;28;20199;-74
2023/10/27 12:52:08;;;;;;;3.00;1.70;;;12.00;99.90;;;;;;5133314;27;20224;-76